Hauptseite
METAR-TAF:

METAR-TAF

Flughäfen :

Teheran, Iran

Flughafen Teheran-Mehrabad

Breite: 35-41N, Länge: 051-21E, Höhe: 1204 m

Beobachtung

Neuester Wetterbericht von vor 46 Minuten, um 11:00 UTC
Wind 8 kt aus Südwest
Temperatur 30°C
Luftfeuchtigkeit 10%
Luftdruck 1016 hPa
Sichtweite 10 km oder mehr
keine Wolken unter 1500 m und keine Kumulonimbus oder Gewitterwolken

METAR: OIII 221100Z 23008KT CAVOK 30/M05 Q1016 A3000 NOSIG

Zeit: 15:16 (11:46 UTC)

Prognose

Neuester Wetterbericht von vor 46 Minuten, um 11:00 UTC
Gültige Prognose vom 22 um 12 UTC bis 23 um 18 UTC
Wind 10 kt aus West/Südwest
Sichtweite 10 km oder mehr
keine Wolken unter 1500 m und keine Kumulonimbus oder Gewitterwolken
Übergehend zu
vom 22 um 18 UTC bis 22 um 20 UTC
Wind 8 kt aus Nord/Nordwest

TAF: OIII 221100Z 2212/2318 24005MPS CAVOK BECMG 2218/2220 33004MPS

Wetterbeobachtungen und Prognosen von mehr als 4000 Flughäfen (METAR und TAF Bericht).

Die verfügbaren Stationen werden durch gelbe und rote Markierungen auf der Karte dargestellt.

Führen Sie die Maus auf sie, um den Namen der Station zu sehen.

Darauf klicken, um die Beobachtung von Wetterbeobachtungen und Prognosen zu sehen.

Um die Karte zu ändern : klicken Sie auf den grünen Tasten mit einem schwarzen Kreuz Zum Vergrößern, auf den grünen Button mit einem Gedankenstrich zu verkleinern, oder auf die grünen Pfeile für benachbarte Karten.


METAR-TAF: